createdAt,value
2023-04-18T00:01:33.464Z,11.27
2023-04-18T00:04:00.361Z,12.50
2023-04-18T00:06:27.199Z,11.95
2023-04-18T00:08:53.930Z,13.55
2023-04-18T00:11:20.813Z,12.48
2023-04-18T00:13:47.698Z,12.60
2023-04-18T00:16:14.941Z,14.15
2023-04-18T00:18:41.645Z,11.95
2023-04-18T00:21:08.823Z,11.85
2023-04-18T00:23:36.095Z,11.57
2023-04-18T00:26:03.114Z,11.68
2023-04-18T00:28:29.849Z,11.88
2023-04-18T00:30:56.611Z,11.70
2023-04-18T00:33:23.382Z,12.40
2023-04-18T00:35:50.082Z,12.20
2023-04-18T00:38:16.882Z,12.30
2023-04-18T00:40:43.597Z,12.10
2023-04-18T00:43:12.637Z,12.80
2023-04-18T00:45:39.266Z,13.25
2023-04-18T00:48:06.149Z,12.05
2023-04-18T00:50:32.861Z,11.20
2023-04-18T00:52:59.574Z,12.35
2023-04-18T00:55:26.252Z,11.98
2023-04-18T00:57:52.968Z,11.45
2023-04-18T01:00:19.666Z,11.88
2023-04-18T01:02:47.180Z,10.98
2023-04-18T01:05:14.055Z,12.60
2023-04-18T01:07:43.547Z,10.70
2023-04-18T01:10:10.814Z,11.50
2023-04-18T01:12:40.875Z,11.70
2023-04-18T01:15:08.240Z,11.73
2023-04-18T01:17:35.618Z,11.32
2023-04-18T01:20:04.983Z,10.98
2023-04-18T01:22:32.239Z,10.60
2023-04-18T01:24:59.115Z,10.23
2023-04-18T01:27:25.910Z,10.25
2023-04-18T01:29:52.533Z,10.18
2023-04-18T01:32:20.652Z,9.77
2023-04-18T01:34:47.717Z,10.85
2023-04-18T01:37:14.590Z,11.23
2023-04-18T01:39:41.377Z,12.25
2023-04-18T01:42:08.117Z,11.45
2023-04-18T01:44:34.784Z,11.65
2023-04-18T01:47:01.597Z,11.40
2023-04-18T01:49:28.293Z,11.32
2023-04-18T01:51:54.968Z,10.80
2023-04-18T01:54:21.643Z,12.18
2023-04-18T01:56:48.348Z,11.10
2023-04-18T01:59:15.138Z,11.48
2023-04-18T02:01:41.777Z,11.45
2023-04-18T02:04:08.631Z,11.05
2023-04-18T02:06:35.354Z,11.63
2023-04-18T02:09:02.004Z,12.30
2023-04-18T02:11:28.758Z,12.32
2023-04-18T02:13:55.475Z,12.65
2023-04-18T02:16:22.167Z,12.18
2023-04-18T02:18:49.773Z,11.98
2023-04-18T02:21:16.461Z,11.75
2023-04-18T02:23:43.152Z,12.75
2023-04-18T02:26:09.857Z,11.43
2023-04-18T02:28:39.254Z,11.07
2023-04-18T02:31:07.375Z,11.30
2023-04-18T02:33:34.084Z,11.80
2023-04-18T02:36:01.774Z,11.45
2023-04-18T02:38:28.494Z,11.90
2023-04-18T02:40:55.259Z,11.63
2023-04-18T02:43:21.897Z,11.75
2023-04-18T02:45:48.629Z,11.27
2023-04-18T02:48:15.476Z,12.23
2023-04-18T02:50:42.204Z,11.93
2023-04-18T02:53:08.908Z,11.68
2023-04-18T02:55:35.497Z,11.52
2023-04-18T02:58:02.205Z,11.35
2023-04-18T03:00:28.870Z,11.50
2023-04-18T03:02:55.664Z,11.68
2023-04-18T03:05:22.459Z,11.25
2023-04-18T03:07:49.165Z,11.07
2023-04-18T03:10:16.331Z,11.15
2023-04-18T03:12:43.029Z,11.50
2023-04-18T03:15:10.116Z,12.20
2023-04-18T03:17:36.841Z,11.93
2023-04-18T03:20:03.711Z,12.00
2023-04-18T03:22:30.464Z,12.27
2023-04-18T03:24:57.157Z,11.85
2023-04-18T03:27:23.819Z,10.95
2023-04-18T03:29:50.494Z,11.80
2023-04-18T03:32:17.406Z,11.52
2023-04-18T03:34:44.156Z,10.98
2023-04-18T03:37:10.831Z,10.95
2023-04-18T03:39:37.472Z,11.38
2023-04-18T03:42:04.184Z,11.25
2023-04-18T03:44:31.360Z,11.63
2023-04-18T03:46:58.156Z,10.75
2023-04-18T03:49:24.893Z,11.68
2023-04-18T03:51:52.144Z,11.43
2023-04-18T03:54:19.039Z,12.13
2023-04-18T03:56:46.007Z,12.27
2023-04-18T03:59:12.727Z,11.10
2023-04-18T04:01:39.490Z,11.35
2023-04-18T04:04:06.482Z,11.75
2023-04-18T04:06:33.244Z,11.82
2023-04-18T04:08:59.949Z,12.00
2023-04-18T04:11:26.900Z,11.23
2023-04-18T04:13:53.625Z,11.77
2023-04-18T04:16:20.384Z,11.50
2023-04-18T04:18:47.139Z,12.85
2023-04-18T04:21:13.809Z,12.63
2023-04-18T04:23:42.610Z,11.82
2023-04-18T04:26:09.512Z,12.68
2023-04-18T04:28:36.222Z,12.32
2023-04-18T04:31:06.178Z,12.95
2023-04-18T04:33:34.112Z,12.13
2023-04-18T04:36:01.394Z,13.00
2023-04-18T04:38:31.037Z,13.77
2023-04-18T04:40:58.396Z,12.88
2023-04-18T04:43:26.131Z,13.55
2023-04-18T04:45:53.707Z,13.27
2023-04-18T04:48:22.252Z,12.95
2023-04-18T04:50:53.365Z,12.35
2023-04-18T04:53:20.071Z,12.13
2023-04-18T04:55:46.754Z,12.25
2023-04-18T04:58:13.648Z,12.98
2023-04-18T05:00:40.470Z,12.60
2023-04-18T05:03:08.473Z,12.75
2023-04-18T05:05:35.922Z,13.73
2023-04-18T05:08:03.145Z,13.07
2023-04-18T05:10:30.551Z,13.40
2023-04-18T05:12:58.646Z,12.27
2023-04-18T05:15:25.410Z,12.73
2023-04-18T05:17:52.184Z,13.25
2023-04-18T05:20:18.920Z,14.13
2023-04-18T05:22:45.875Z,13.23
2023-04-18T05:25:12.805Z,13.55
2023-04-18T05:27:39.760Z,13.88
2023-04-18T05:30:07.211Z,12.02
2023-04-18T05:32:34.567Z,11.43
2023-04-18T05:35:01.343Z,12.20
2023-04-18T05:37:28.102Z,11.88
2023-04-18T05:39:54.735Z,12.20
2023-04-18T05:42:21.420Z,12.73
2023-04-18T05:44:48.058Z,11.70
2023-04-18T05:47:14.801Z,12.15
2023-04-18T05:49:41.466Z,12.07
2023-04-18T05:52:08.160Z,13.00
2023-04-18T05:54:34.894Z,11.60
2023-04-18T05:57:03.871Z,12.07
2023-04-18T05:59:31.244Z,11.18
2023-04-18T06:01:57.964Z,11.65
2023-04-18T06:04:24.891Z,11.55
2023-04-18T06:06:51.894Z,11.40
2023-04-18T06:09:18.644Z,11.07
2023-04-18T06:11:45.470Z,11.68
2023-04-18T06:14:12.493Z,11.40
2023-04-18T06:16:39.433Z,11.05
2023-04-18T06:19:06.253Z,10.80
2023-04-18T06:21:33.020Z,10.80
2023-04-18T06:24:01.454Z,11.82
2023-04-18T06:26:28.218Z,11.82
2023-04-18T06:28:54.933Z,10.50
2023-04-18T06:31:21.679Z,11.38
2023-04-18T06:33:48.408Z,12.00
2023-04-18T06:36:15.075Z,12.13
2023-04-18T06:38:41.781Z,11.02
2023-04-18T06:41:08.463Z,11.63
2023-04-18T06:43:36.244Z,11.80
2023-04-18T06:46:05.028Z,11.40
2023-04-18T06:48:31.902Z,10.60
2023-04-18T06:50:58.558Z,10.45
2023-04-18T06:53:25.284Z,10.60
2023-04-18T06:55:52.009Z,9.80
2023-04-18T06:58:18.658Z,11.70
2023-04-18T07:00:48.957Z,9.85
2023-04-18T07:03:15.939Z,11.20
2023-04-18T07:05:42.762Z,9.82
2023-04-18T07:08:09.516Z,11.05
2023-04-18T07:10:36.201Z,10.05
2023-04-18T07:13:03.383Z,11.32
2023-04-18T07:15:30.161Z,10.55
2023-04-18T07:17:57.039Z,10.90
2023-04-18T07:20:23.713Z,10.27
2023-04-18T07:22:50.451Z,10.65
2023-04-18T07:25:17.217Z,11.27
2023-04-18T07:27:43.900Z,10.65
2023-04-18T07:30:11.068Z,10.73
2023-04-18T07:32:37.863Z,10.93
2023-04-18T07:35:05.304Z,10.52
2023-04-18T07:37:31.969Z,11.38
2023-04-18T07:39:58.919Z,11.13
2023-04-18T07:42:25.657Z,11.13
2023-04-18T07:44:57.804Z,11.63
2023-04-18T07:47:26.906Z,11.63
2023-04-18T07:49:55.110Z,11.52
2023-04-18T07:52:21.914Z,11.00
2023-04-18T07:54:48.546Z,11.30
2023-04-18T07:57:15.488Z,11.48
2023-04-18T07:59:42.203Z,10.73
2023-04-18T08:02:08.978Z,10.48
2023-04-18T08:04:35.961Z,10.27
2023-04-18T08:07:02.723Z,10.82
2023-04-18T08:09:29.504Z,10.93
2023-04-18T08:11:57.996Z,10.18
2023-04-18T08:14:24.658Z,10.65
2023-04-18T08:16:51.380Z,9.82
2023-04-18T08:19:18.006Z,10.43
2023-04-18T08:21:44.610Z,10.20
2023-04-18T08:24:11.338Z,9.60
2023-04-18T08:26:38.024Z,11.40
2023-04-18T08:29:04.783Z,10.45
2023-04-18T08:31:31.888Z,10.48
2023-04-18T08:33:58.566Z,10.43
2023-04-18T08:36:26.074Z,10.63
2023-04-18T08:38:52.695Z,11.65
2023-04-18T08:41:21.517Z,10.82
2023-04-18T08:43:49.084Z,9.80
2023-04-18T08:46:15.798Z,10.43
2023-04-18T08:48:42.602Z,11.15
2023-04-18T08:51:09.416Z,10.07
2023-04-18T08:53:36.112Z,10.93
2023-04-18T08:56:02.944Z,10.07
2023-04-18T08:58:32.526Z,10.13
2023-04-18T09:00:59.313Z,9.93
2023-04-18T09:03:40.159Z,10.52
2023-04-18T09:06:13.705Z,11.38
2023-04-18T09:08:43.968Z,10.30
2023-04-18T09:11:26.083Z,11.25
2023-04-18T09:13:53.296Z,10.50
2023-04-18T09:16:22.497Z,10.18
2023-04-18T09:19:09.030Z,10.35
2023-04-18T09:21:38.433Z,10.57
2023-04-18T09:24:24.929Z,10.55
2023-04-18T09:26:53.862Z,9.88
2023-04-18T09:29:23.585Z,9.90
2023-04-18T09:32:08.540Z,10.80
2023-04-18T09:34:38.384Z,9.23
2023-04-18T09:37:09.792Z,10.10
2023-04-18T09:39:38.670Z,10.07
2023-04-18T09:42:05.890Z,10.25
2023-04-18T09:44:32.657Z,10.02
2023-04-18T09:46:59.412Z,9.85
2023-04-18T09:49:26.476Z,9.27
2023-04-18T09:51:54.708Z,9.82
2023-04-18T09:54:24.230Z,9.20
2023-04-18T09:56:51.879Z,8.52
2023-04-18T09:59:47.746Z,9.02
2023-04-18T10:02:23.755Z,8.27
2023-04-18T10:04:54.349Z,8.68
2023-04-18T10:07:21.237Z,8.50
2023-04-18T10:09:48.085Z,8.65
2023-04-18T10:12:14.814Z,8.07
2023-04-18T10:14:43.220Z,7.95
2023-04-18T10:17:11.083Z,7.65
2023-04-18T10:19:38.534Z,7.97
2023-04-18T10:22:05.404Z,7.55
2023-04-18T10:24:53.711Z,7.28
2023-04-18T10:27:48.686Z,7.93
2023-04-18T10:30:16.398Z,7.05
2023-04-18T10:32:43.126Z,7.53
2023-04-18T10:35:10.917Z,7.22
2023-04-18T10:37:51.268Z,7.43
2023-04-18T10:40:35.193Z,6.72
2023-04-18T10:43:03.142Z,6.82
2023-04-18T10:45:31.585Z,7.10
2023-04-18T10:48:29.680Z,7.53
2023-04-18T10:51:18.985Z,6.40
2023-04-18T10:54:35.841Z,6.20
2023-04-18T10:57:07.329Z,6.22
2023-04-18T10:59:35.312Z,6.35
2023-04-18T11:02:07.919Z,5.90
2023-04-18T11:04:34.734Z,6.00
2023-04-18T11:07:01.825Z,5.50
2023-04-18T11:09:28.545Z,5.97
2023-04-18T11:12:09.403Z,5.47
2023-04-18T11:14:43.201Z,5.43
2023-04-18T11:17:21.395Z,5.82
2023-04-18T11:19:48.484Z,5.72
2023-04-18T11:22:15.863Z,5.80
2023-04-18T11:24:42.985Z,5.15
2023-04-18T11:27:10.377Z,5.50
2023-04-18T11:29:37.290Z,6.00
2023-04-18T11:32:08.216Z,6.28
2023-04-18T11:34:35.997Z,6.13
2023-04-18T11:37:06.790Z,6.20
2023-04-18T11:39:42.849Z,6.90
2023-04-18T11:42:09.829Z,7.00
2023-04-18T11:44:39.824Z,6.93
2023-04-18T11:47:30.708Z,6.47
2023-04-18T11:50:01.755Z,7.47
2023-04-18T11:52:29.727Z,6.38
2023-04-18T11:55:10.851Z,8.00
2023-04-18T11:57:37.562Z,7.03
2023-04-18T12:00:06.988Z,6.85
2023-04-18T12:02:44.679Z,6.70
2023-04-18T12:05:14.999Z,6.00
2023-04-18T12:07:43.134Z,6.70
2023-04-18T12:10:30.214Z,6.45
2023-04-18T12:13:00.648Z,5.95
2023-04-18T12:15:28.695Z,5.90
2023-04-18T12:18:03.630Z,6.07
2023-04-18T12:20:51.669Z,5.47
2023-04-18T12:23:33.906Z,5.30
2023-04-18T12:26:05.123Z,5.40
2023-04-18T12:28:32.186Z,4.30
2023-04-18T12:30:59.279Z,4.25
2023-04-18T12:33:26.371Z,4.70
2023-04-18T12:35:53.606Z,4.57
2023-04-18T12:38:24.084Z,3.85
2023-04-18T12:40:51.358Z,3.63
2023-04-18T12:43:18.643Z,3.67
2023-04-18T12:45:49.427Z,3.80
2023-04-18T12:48:17.257Z,3.55
2023-04-18T12:50:45.120Z,3.70
2023-04-18T12:53:11.871Z,3.70
2023-04-18T12:55:38.702Z,3.22
2023-04-18T12:58:05.429Z,3.22
2023-04-18T13:00:32.905Z,3.72
2023-04-18T13:03:01.206Z,3.15
2023-04-18T13:05:32.508Z,3.63
2023-04-18T13:08:15.470Z,3.13
2023-04-18T13:10:43.791Z,2.80
2023-04-18T13:13:10.502Z,2.78
2023-04-18T13:15:37.620Z,3.28
2023-04-18T13:18:06.426Z,3.17
2023-04-18T13:20:34.315Z,3.33
2023-04-18T13:23:02.548Z,3.20
2023-04-18T13:25:29.710Z,3.45
2023-04-18T13:27:58.642Z,3.20
2023-04-18T13:30:25.765Z,3.70
2023-04-18T13:32:52.604Z,2.80
2023-04-18T13:35:19.342Z,3.28
2023-04-18T13:37:46.412Z,3.53
2023-04-18T13:40:13.719Z,3.33
2023-04-18T13:42:40.708Z,3.20
2023-04-18T13:45:08.198Z,3.10
2023-04-18T13:47:35.211Z,3.33
2023-04-18T13:50:02.123Z,3.10
2023-04-18T13:52:29.069Z,2.90
2023-04-18T13:54:55.797Z,3.90
2023-04-18T13:57:23.446Z,3.47
2023-04-18T13:59:50.187Z,4.35
2023-04-18T14:02:17.043Z,3.78
2023-04-18T14:04:43.959Z,3.30
2023-04-18T14:07:11.036Z,3.58
2023-04-18T14:09:37.781Z,3.47
2023-04-18T14:12:05.342Z,4.07
2023-04-18T14:14:32.112Z,4.10
2023-04-18T14:16:58.824Z,3.53
2023-04-18T14:19:27.223Z,2.97
2023-04-18T14:21:54.510Z,3.40
2023-04-18T14:24:21.383Z,3.65
2023-04-18T14:26:48.492Z,3.38
2023-04-18T14:29:16.851Z,3.33
2023-04-18T14:31:44.108Z,3.05
2023-04-18T14:34:10.925Z,2.90
2023-04-18T14:36:37.683Z,3.13
2023-04-18T14:39:05.056Z,3.00
2023-04-18T14:41:32.046Z,2.67
2023-04-18T14:43:59.278Z,3.17
2023-04-18T14:46:28.336Z,3.05
2023-04-18T14:48:55.137Z,3.15
2023-04-18T14:51:21.892Z,3.00
2023-04-18T14:53:48.734Z,3.10
2023-04-18T14:56:16.294Z,3.08
2023-04-18T14:58:43.099Z,2.92
2023-04-18T15:01:09.752Z,2.78
2023-04-18T15:03:36.587Z,2.80
2023-04-18T15:06:03.468Z,2.88
2023-04-18T15:08:32.668Z,3.20
2023-04-18T15:10:59.679Z,3.50
2023-04-18T15:13:26.602Z,3.15
2023-04-18T15:15:54.005Z,4.20
2023-04-18T15:18:21.032Z,3.92
2023-04-18T15:20:47.817Z,4.53
2023-04-18T15:23:15.038Z,4.13
2023-04-18T15:25:42.835Z,4.32
2023-04-18T15:28:09.567Z,4.50
2023-04-18T15:30:36.584Z,4.30
2023-04-18T15:33:03.491Z,4.15
2023-04-18T15:35:30.451Z,4.40
2023-04-18T15:37:58.357Z,4.55
2023-04-18T15:40:25.047Z,4.35
2023-04-18T15:42:53.858Z,4.70
2023-04-18T15:45:21.404Z,4.55
2023-04-18T15:47:48.376Z,4.47
2023-04-18T15:50:16.339Z,4.63
2023-04-18T15:52:43.479Z,4.72
2023-04-18T15:55:13.277Z,4.95
2023-04-18T15:57:41.727Z,5.95
2023-04-18T16:00:16.096Z,4.55
2023-04-18T16:02:43.993Z,4.60
2023-04-18T16:05:12.370Z,4.28
2023-04-18T16:07:40.232Z,4.05
2023-04-18T16:10:10.319Z,4.68
2023-04-18T16:12:37.982Z,4.57
2023-04-18T16:15:09.189Z,4.25
2023-04-18T16:17:36.952Z,4.70
2023-04-18T16:20:04.484Z,5.00
2023-04-18T16:22:31.185Z,5.15
2023-04-18T16:24:57.938Z,4.30
2023-04-18T16:27:24.713Z,5.03
2023-04-18T16:29:51.532Z,4.88
2023-04-18T16:32:18.208Z,4.63
2023-04-18T16:34:44.984Z,4.95
2023-04-18T16:37:12.060Z,5.03
2023-04-18T16:39:38.986Z,4.57
2023-04-18T16:42:05.845Z,4.47
2023-04-18T16:44:33.342Z,4.75
2023-04-18T16:47:00.341Z,4.93
2023-04-18T16:49:27.082Z,4.85
2023-04-18T16:51:53.850Z,5.30
2023-04-18T16:54:20.566Z,4.72
2023-04-18T16:56:47.538Z,4.57
2023-04-18T16:59:14.332Z,5.00
2023-04-18T17:01:41.113Z,4.43
2023-04-18T17:04:07.914Z,4.80
2023-04-18T17:06:34.707Z,4.90
2023-04-18T17:09:01.365Z,4.43
2023-04-18T17:11:28.547Z,5.00
2023-04-18T17:13:55.188Z,4.40
2023-04-18T17:16:21.968Z,4.63
2023-04-18T17:18:48.742Z,4.78
2023-04-18T17:21:15.460Z,4.53
2023-04-18T17:23:42.620Z,5.00
2023-04-18T17:26:10.001Z,4.70
2023-04-18T17:28:37.198Z,4.82
2023-04-18T17:31:04.361Z,5.68
2023-04-18T17:33:31.588Z,5.10
2023-04-18T17:35:58.857Z,4.47
2023-04-18T17:38:25.791Z,4.93
2023-04-18T17:41:00.180Z,4.68
2023-04-18T17:43:27.183Z,5.15
2023-04-18T17:45:54.262Z,5.68
2023-04-18T17:48:21.273Z,5.35
2023-04-18T17:50:48.020Z,5.70
2023-04-18T17:53:14.738Z,5.72
2023-04-18T17:55:41.531Z,6.00
2023-04-18T17:58:08.258Z,6.35
2023-04-18T18:00:35.269Z,6.50
2023-04-18T18:03:03.090Z,6.40
2023-04-18T18:05:30.536Z,6.38
2023-04-18T18:07:57.740Z,6.35
2023-04-18T18:10:25.103Z,7.28
2023-04-18T18:12:51.814Z,6.28
2023-04-18T18:15:19.525Z,7.15
2023-04-18T18:17:48.936Z,6.47
2023-04-18T18:20:15.956Z,6.70
2023-04-18T18:22:43.382Z,7.28
2023-04-18T18:25:10.893Z,7.15
2023-04-18T18:27:37.694Z,6.88
2023-04-18T18:30:05.596Z,7.07
2023-04-18T18:32:32.255Z,7.43
2023-04-18T18:34:59.121Z,6.57
2023-04-18T18:37:26.796Z,7.45
2023-04-18T18:39:56.725Z,6.55
2023-04-18T18:42:23.501Z,6.78
2023-04-18T18:44:50.578Z,6.97
2023-04-18T18:47:18.171Z,6.85
2023-04-18T18:49:44.878Z,6.00
2023-04-18T18:52:11.569Z,7.15
2023-04-18T18:54:38.215Z,6.50
2023-04-18T18:57:04.955Z,7.25
2023-04-18T18:59:31.631Z,7.60
2023-04-18T19:01:58.455Z,6.82
2023-04-18T19:04:25.735Z,7.00
2023-04-18T19:06:53.640Z,6.68
2023-04-18T19:09:20.352Z,7.57
2023-04-18T19:11:47.107Z,7.32
2023-04-18T19:14:13.893Z,7.07
2023-04-18T19:16:40.672Z,7.10
2023-04-18T19:19:07.489Z,6.63
2023-04-18T19:21:34.182Z,7.07
2023-04-18T19:24:00.860Z,7.40
2023-04-18T19:26:27.563Z,7.10
2023-04-18T19:28:54.615Z,6.75
2023-04-18T19:31:21.431Z,7.35
2023-04-18T19:33:48.211Z,7.57
2023-04-18T19:36:15.252Z,7.50
2023-04-18T19:38:41.949Z,7.68
2023-04-18T19:41:08.655Z,8.10
2023-04-18T19:43:35.596Z,7.43
2023-04-18T19:46:02.346Z,7.28
2023-04-18T19:48:29.055Z,7.25
2023-04-18T19:50:56.642Z,7.80
2023-04-18T19:53:23.838Z,8.43
2023-04-18T19:55:50.685Z,7.82
2023-04-18T19:58:37.957Z,8.35
2023-04-18T20:01:06.147Z,7.15
2023-04-18T20:03:34.313Z,7.93
2023-04-18T20:06:01.589Z,7.90
2023-04-18T20:08:29.399Z,7.68
2023-04-18T20:10:56.609Z,8.05
2023-04-18T20:13:23.540Z,7.95
2023-04-18T20:15:50.482Z,8.43
2023-04-18T20:18:17.356Z,7.28
2023-04-18T20:20:44.209Z,8.55
2023-04-18T20:23:11.406Z,8.15
2023-04-18T20:25:38.239Z,8.23
2023-04-18T20:28:05.432Z,8.00
2023-04-18T20:30:32.306Z,7.88
2023-04-18T20:32:59.106Z,8.40
2023-04-18T20:35:28.158Z,9.02
2023-04-18T20:37:55.331Z,7.95
2023-04-18T20:40:22.412Z,7.22
2023-04-18T20:42:49.057Z,7.90
2023-04-18T20:45:15.992Z,8.18
2023-04-18T20:47:43.212Z,8.27
2023-04-18T20:50:11.073Z,8.65
2023-04-18T20:52:37.838Z,8.60
2023-04-18T20:55:04.742Z,7.68
2023-04-18T20:57:31.675Z,7.70
2023-04-18T20:59:59.510Z,8.63
2023-04-18T21:02:26.616Z,7.45
2023-04-18T21:04:53.553Z,8.77
2023-04-18T21:07:20.285Z,7.97
2023-04-18T21:09:47.012Z,7.47
2023-04-18T21:12:13.777Z,8.23
2023-04-18T21:14:40.452Z,8.13
2023-04-18T21:17:07.132Z,8.35
2023-04-18T21:19:33.823Z,7.90
2023-04-18T21:22:00.557Z,8.85
2023-04-18T21:24:27.217Z,8.55
2023-04-18T21:26:53.962Z,7.93
2023-04-18T21:29:21.775Z,8.98
2023-04-18T21:31:50.312Z,9.75
2023-04-18T21:34:17.272Z,8.40
2023-04-18T21:36:44.149Z,8.15
2023-04-18T21:39:10.907Z,8.60
2023-04-18T21:41:37.619Z,8.48
2023-04-18T21:44:04.331Z,8.18
2023-04-18T21:46:30.986Z,9.07
2023-04-18T21:48:57.602Z,8.48
2023-04-18T21:51:24.347Z,8.52
2023-04-18T21:53:52.558Z,8.52
2023-04-18T21:56:19.220Z,8.98
2023-04-18T21:58:46.024Z,9.20
2023-04-18T22:01:12.888Z,9.25
2023-04-18T22:03:39.957Z,8.30
2023-04-18T22:06:06.903Z,9.48
2023-04-18T22:08:33.935Z,8.73
2023-04-18T22:11:00.650Z,9.40
2023-04-18T22:13:33.124Z,9.68
2023-04-18T22:16:03.465Z,9.45
2023-04-18T22:18:33.700Z,8.82
2023-04-18T22:21:01.544Z,9.13
2023-04-18T22:23:28.254Z,10.20
2023-04-18T22:25:55.033Z,9.50
2023-04-18T22:28:23.641Z,9.73
2023-04-18T22:30:51.115Z,8.63
2023-04-18T22:33:17.791Z,8.98
2023-04-18T22:35:44.534Z,9.98
2023-04-18T22:38:11.160Z,9.15
2023-04-18T22:40:37.806Z,9.23
2023-04-18T22:43:04.448Z,8.10
2023-04-18T22:45:31.280Z,10.10
2023-04-18T22:47:57.953Z,9.20
2023-04-18T22:50:24.722Z,10.52
2023-04-18T22:52:51.524Z,10.40
2023-04-18T22:55:19.975Z,9.60
2023-04-18T22:57:49.737Z,9.70
2023-04-18T23:00:16.822Z,9.80
2023-04-18T23:02:43.592Z,9.48
2023-04-18T23:05:11.639Z,9.95
2023-04-18T23:07:38.270Z,9.05
2023-04-18T23:10:06.627Z,9.90
2023-04-18T23:12:33.403Z,10.63
2023-04-18T23:15:00.060Z,9.98
2023-04-18T23:17:26.706Z,9.63
2023-04-18T23:19:53.424Z,9.85
2023-04-18T23:22:20.646Z,10.30
2023-04-18T23:24:47.269Z,11.05
2023-04-18T23:27:13.951Z,11.52
2023-04-18T23:29:40.614Z,9.95
2023-04-18T23:32:07.424Z,11.27
2023-04-18T23:34:34.181Z,10.63
2023-04-18T23:37:00.989Z,9.82
2023-04-18T23:39:27.735Z,10.85
2023-04-18T23:41:54.404Z,10.55
2023-04-18T23:44:21.034Z,9.70
2023-04-18T23:46:48.228Z,11.18
2023-04-18T23:49:15.343Z,11.40
2023-04-18T23:51:42.594Z,10.95
2023-04-18T23:54:09.224Z,10.13
2023-04-18T23:56:35.993Z,10.93
2023-04-18T23:59:02.739Z,10.88
